sensor_id;sensor_type;location;lat;lon;timestamp;P1;durP1;ratioP1;P2;durP2;ratioP2
52798;SDS011;38667;42.872;74.622;2022-10-22T00:01:18;45.15;;;16.65;;
52798;SDS011;38667;42.872;74.622;2022-10-22T00:03:46;35.70;;;14.73;;
52798;SDS011;38667;42.872;74.622;2022-10-22T00:06:12;37.55;;;15.15;;
52798;SDS011;38667;42.872;74.622;2022-10-22T00:08:39;12.05;;;5.47;;
52798;SDS011;38667;42.872;74.622;2022-10-22T00:11:09;31.77;;;13.95;;
52798;SDS011;38667;42.872;74.622;2022-10-22T00:13:36;32.95;;;12.60;;
52798;SDS011;38667;42.872;74.622;2022-10-22T00:16:03;31.88;;;12.82;;
52798;SDS011;38667;42.872;74.622;2022-10-22T00:18:29;26.35;;;10.77;;
52798;SDS011;38667;42.872;74.622;2022-10-22T00:20:57;29.58;;;10.35;;
52798;SDS011;38667;42.872;74.622;2022-10-22T00:23:23;19.40;;;7.97;;
52798;SDS011;38667;42.872;74.622;2022-10-22T00:25:50;21.35;;;8.75;;
52798;SDS011;38667;42.872;74.622;2022-10-22T00:28:17;65.68;;;11.48;;
52798;SDS011;38667;42.872;74.622;2022-10-22T00:30:44;27.27;;;10.15;;
52798;SDS011;38667;42.872;74.622;2022-10-22T00:33:10;25.77;;;9.50;;
52798;SDS011;38667;42.872;74.622;2022-10-22T00:35:36;27.65;;;9.13;;
52798;SDS011;38667;42.872;74.622;2022-10-22T00:38:04;23.88;;;9.30;;
52798;SDS011;38667;42.872;74.622;2022-10-22T00:40:31;20.95;;;8.07;;
52798;SDS011;38667;42.872;74.622;2022-10-22T00:42:57;16.98;;;6.78;;
52798;SDS011;38667;42.872;74.622;2022-10-22T00:45:24;19.73;;;6.90;;
52798;SDS011;38667;42.872;74.622;2022-10-22T00:47:52;16.77;;;6.30;;
52798;SDS011;38667;42.872;74.622;2022-10-22T00:50:22;16.02;;;6.05;;
52798;SDS011;38667;42.872;74.622;2022-10-22T00:52:52;17.25;;;7.10;;
52798;SDS011;38667;42.872;74.622;2022-10-22T00:55:21;14.25;;;5.28;;
52798;SDS011;38667;42.872;74.622;2022-10-22T00:57:48;11.32;;;5.45;;
52798;SDS011;38667;42.872;74.622;2022-10-22T01:00:15;15.15;;;5.53;;
52798;SDS011;38667;42.872;74.622;2022-10-22T01:02:42;20.00;;;6.07;;
52798;SDS011;38667;42.872;74.622;2022-10-22T01:05:08;15.10;;;5.07;;
52798;SDS011;38667;42.872;74.622;2022-10-22T01:07:36;18.95;;;4.97;;
52798;SDS011;38667;42.872;74.622;2022-10-22T01:10:07;20.90;;;4.80;;
52798;SDS011;38667;42.872;74.622;2022-10-22T01:12:45;15.18;;;4.40;;
52798;SDS011;38667;42.872;74.622;2022-10-22T01:15:20;12.13;;;3.60;;
52798;SDS011;38667;42.872;74.622;2022-10-22T01:17:53;14.80;;;4.00;;
52798;SDS011;38667;42.872;74.622;2022-10-22T01:20:44;13.60;;;3.85;;
52798;SDS011;38667;42.872;74.622;2022-10-22T01:23:24;10.50;;;3.95;;
52798;SDS011;38667;42.872;74.622;2022-10-22T01:26:11;19.88;;;6.53;;
52798;SDS011;38667;42.872;74.622;2022-10-22T01:28:50;19.45;;;8.05;;
52798;SDS011;38667;42.872;74.622;2022-10-22T01:31:23;32.65;;;9.50;;
52798;SDS011;38667;42.872;74.622;2022-10-22T01:33:51;41.38;;;12.90;;
52798;SDS011;38667;42.872;74.622;2022-10-22T01:36:19;46.42;;;15.25;;
52798;SDS011;38667;42.872;74.622;2022-10-22T01:38:46;46.47;;;15.77;;
52798;SDS011;38667;42.872;74.622;2022-10-22T01:41:13;39.67;;;13.43;;
52798;SDS011;38667;42.872;74.622;2022-10-22T01:43:40;42.30;;;14.48;;
52798;SDS011;38667;42.872;74.622;2022-10-22T01:46:08;57.08;;;18.35;;
52798;SDS011;38667;42.872;74.622;2022-10-22T01:48:39;76.78;;;22.92;;
52798;SDS011;38667;42.872;74.622;2022-10-22T01:51:23;59.53;;;19.85;;
52798;SDS011;38667;42.872;74.622;2022-10-22T01:53:59;47.55;;;17.13;;
52798;SDS011;38667;42.872;74.622;2022-10-22T01:56:36;53.85;;;17.65;;
52798;SDS011;38667;42.872;74.622;2022-10-22T01:59:16;59.03;;;19.90;;
52798;SDS011;38667;42.872;74.622;2022-10-22T02:01:52;59.13;;;20.85;;
52798;SDS011;38667;42.872;74.622;2022-10-22T02:04:24;83.22;;;30.02;;
52798;SDS011;38667;42.872;74.622;2022-10-22T02:06:55;114.28;;;34.10;;
52798;SDS011;38667;42.872;74.622;2022-10-22T02:09:25;99.07;;;31.83;;
52798;SDS011;38667;42.872;74.622;2022-10-22T02:11:53;86.78;;;31.42;;
52798;SDS011;38667;42.872;74.622;2022-10-22T02:14:22;97.65;;;32.90;;
52798;SDS011;38667;42.872;74.622;2022-10-22T02:16:53;104.15;;;34.58;;
52798;SDS011;38667;42.872;74.622;2022-10-22T02:19:23;86.25;;;31.73;;
52798;SDS011;38667;42.872;74.622;2022-10-22T02:21:51;66.38;;;25.65;;
52798;SDS011;38667;42.872;74.622;2022-10-22T02:24:18;71.93;;;23.88;;
52798;SDS011;38667;42.872;74.622;2022-10-22T02:26:46;67.93;;;23.58;;
52798;SDS011;38667;42.872;74.622;2022-10-22T02:29:19;65.57;;;23.10;;
52798;SDS011;38667;42.872;74.622;2022-10-22T02:31:49;66.15;;;23.40;;
52798;SDS011;38667;42.872;74.622;2022-10-22T02:34:20;64.90;;;23.73;;
52798;SDS011;38667;42.872;74.622;2022-10-22T02:36:49;68.30;;;24.38;;
52798;SDS011;38667;42.872;74.622;2022-10-22T02:39:17;76.90;;;24.70;;
52798;SDS011;38667;42.872;74.622;2022-10-22T02:41:45;76.60;;;25.33;;
52798;SDS011;38667;42.872;74.622;2022-10-22T02:44:11;70.57;;;25.15;;
52798;SDS011;38667;42.872;74.622;2022-10-22T02:46:38;63.38;;;22.35;;
52798;SDS011;38667;42.872;74.622;2022-10-22T02:49:06;69.40;;;23.90;;
52798;SDS011;38667;42.872;74.622;2022-10-22T02:51:34;49.78;;;19.67;;
52798;SDS011;38667;42.872;74.622;2022-10-22T02:54:01;47.65;;;19.27;;
52798;SDS011;38667;42.872;74.622;2022-10-22T02:56:27;51.53;;;18.50;;
52798;SDS011;38667;42.872;74.622;2022-10-22T02:58:53;43.03;;;18.00;;
52798;SDS011;38667;42.872;74.622;2022-10-22T03:01:20;45.10;;;17.35;;
52798;SDS011;38667;42.872;74.622;2022-10-22T03:03:46;42.33;;;16.30;;
52798;SDS011;38667;42.872;74.622;2022-10-22T03:06:13;40.83;;;15.88;;
52798;SDS011;38667;42.872;74.622;2022-10-22T03:08:41;39.20;;;14.18;;
52798;SDS011;38667;42.872;74.622;2022-10-22T03:11:07;28.10;;;11.98;;
52798;SDS011;38667;42.872;74.622;2022-10-22T03:13:33;23.30;;;9.57;;
52798;SDS011;38667;42.872;74.622;2022-10-22T03:16:00;27.33;;;9.68;;
52798;SDS011;38667;42.872;74.622;2022-10-22T03:18:26;24.63;;;9.55;;
52798;SDS011;38667;42.872;74.622;2022-10-22T03:20:58;29.77;;;9.35;;
52798;SDS011;38667;42.872;74.622;2022-10-22T03:23:28;19.05;;;12.65;;
52798;SDS011;38667;42.872;74.622;2022-10-22T03:25:57;23.55;;;11.75;;
52798;SDS011;38667;42.872;74.622;2022-10-22T03:28:24;29.08;;;16.73;;
52798;SDS011;38667;42.872;74.622;2022-10-22T03:30:50;25.55;;;14.48;;
52798;SDS011;38667;42.872;74.622;2022-10-22T03:33:17;24.73;;;14.32;;
52798;SDS011;38667;42.872;74.622;2022-10-22T03:35:44;17.80;;;10.02;;
52798;SDS011;38667;42.872;74.622;2022-10-22T03:38:11;14.75;;;6.57;;
52798;SDS011;38667;42.872;74.622;2022-10-22T03:40:38;12.18;;;6.80;;
52798;SDS011;38667;42.872;74.622;2022-10-22T03:43:07;13.00;;;5.97;;
52798;SDS011;38667;42.872;74.622;2022-10-22T03:45:33;9.98;;;5.68;;
52798;SDS011;38667;42.872;74.622;2022-10-22T03:47:59;9.57;;;4.47;;
52798;SDS011;38667;42.872;74.622;2022-10-22T03:50:26;14.80;;;6.28;;
52798;SDS011;38667;42.872;74.622;2022-10-22T03:52:52;14.93;;;6.53;;
52798;SDS011;38667;42.872;74.622;2022-10-22T03:55:18;13.18;;;4.45;;
52798;SDS011;38667;42.872;74.622;2022-10-22T03:57:45;9.57;;;3.40;;
52798;SDS011;38667;42.872;74.622;2022-10-22T04:00:13;7.80;;;3.00;;
52798;SDS011;38667;42.872;74.622;2022-10-22T04:02:40;5.95;;;2.28;;
52798;SDS011;38667;42.872;74.622;2022-10-22T04:05:06;6.10;;;2.00;;
52798;SDS011;38667;42.872;74.622;2022-10-22T04:07:33;2.72;;;1.45;;
52798;SDS011;38667;42.872;74.622;2022-10-22T04:09:59;5.63;;;1.70;;
52798;SDS011;38667;42.872;74.622;2022-10-22T04:12:25;6.15;;;2.40;;
52798;SDS011;38667;42.872;74.622;2022-10-22T04:14:52;9.95;;;2.38;;
52798;SDS011;38667;42.872;74.622;2022-10-22T04:17:20;8.85;;;2.50;;
52798;SDS011;38667;42.872;74.622;2022-10-22T04:19:46;5.50;;;3.20;;
52798;SDS011;38667;42.872;74.622;2022-10-22T04:22:12;6.65;;;3.58;;
52798;SDS011;38667;42.872;74.622;2022-10-22T04:24:38;7.68;;;4.07;;
52798;SDS011;38667;42.872;74.622;2022-10-22T04:27:05;11.65;;;2.63;;
52798;SDS011;38667;42.872;74.622;2022-10-22T04:29:31;7.25;;;2.72;;
52798;SDS011;38667;42.872;74.622;2022-10-22T04:31:57;10.40;;;3.25;;
52798;SDS011;38667;42.872;74.622;2022-10-22T04:34:27;10.02;;;2.72;;
52798;SDS011;38667;42.872;74.622;2022-10-22T04:36:53;12.18;;;3.50;;
52798;SDS011;38667;42.872;74.622;2022-10-22T04:39:20;5.28;;;1.85;;
52798;SDS011;38667;42.872;74.622;2022-10-22T04:41:46;4.95;;;1.90;;
52798;SDS011;38667;42.872;74.622;2022-10-22T04:44:12;9.60;;;2.60;;
52798;SDS011;38667;42.872;74.622;2022-10-22T04:46:39;9.13;;;2.60;;
52798;SDS011;38667;42.872;74.622;2022-10-22T04:49:05;11.38;;;2.42;;
52798;SDS011;38667;42.872;74.622;2022-10-22T04:51:33;13.73;;;3.25;;
52798;SDS011;38667;42.872;74.622;2022-10-22T04:53:59;3.58;;;1.98;;
52798;SDS011;38667;42.872;74.622;2022-10-22T04:56:26;12.35;;;2.95;;
52798;SDS011;38667;42.872;74.622;2022-10-22T04:58:54;7.38;;;2.88;;
52798;SDS011;38667;42.872;74.622;2022-10-22T05:01:22;9.45;;;2.15;;
52798;SDS011;38667;42.872;74.622;2022-10-22T05:03:51;7.22;;;2.40;;
52798;SDS011;38667;42.872;74.622;2022-10-22T05:06:18;8.57;;;2.63;;
52798;SDS011;38667;42.872;74.622;2022-10-22T05:08:47;10.07;;;3.22;;
52798;SDS011;38667;42.872;74.622;2022-10-22T05:11:17;7.53;;;2.65;;
52798;SDS011;38667;42.872;74.622;2022-10-22T05:13:44;10.02;;;3.00;;
52798;SDS011;38667;42.872;74.622;2022-10-22T05:16:11;7.85;;;2.67;;
52798;SDS011;38667;42.872;74.622;2022-10-22T05:18:38;10.77;;;3.22;;
52798;SDS011;38667;42.872;74.622;2022-10-22T05:21:07;12.18;;;3.95;;
52798;SDS011;38667;42.872;74.622;2022-10-22T05:23:35;9.65;;;4.75;;
52798;SDS011;38667;42.872;74.622;2022-10-22T05:26:03;5.05;;;2.90;;
52798;SDS011;38667;42.872;74.622;2022-10-22T05:28:31;8.38;;;3.53;;
52798;SDS011;38667;42.872;74.622;2022-10-22T05:30:58;12.10;;;3.95;;
52798;SDS011;38667;42.872;74.622;2022-10-22T05:33:25;17.38;;;3.35;;
52798;SDS011;38667;42.872;74.622;2022-10-22T05:35:53;6.82;;;2.67;;
52798;SDS011;38667;42.872;74.622;2022-10-22T05:38:19;8.75;;;2.40;;
52798;SDS011;38667;42.872;74.622;2022-10-22T05:40:46;4.28;;;1.25;;
52798;SDS011;38667;42.872;74.622;2022-10-22T05:43:13;5.28;;;1.42;;
52798;SDS011;38667;42.872;74.622;2022-10-22T05:45:40;6.07;;;1.55;;
52798;SDS011;38667;42.872;74.622;2022-10-22T05:48:07;6.90;;;2.00;;
52798;SDS011;38667;42.872;74.622;2022-10-22T05:50:34;6.00;;;2.20;;
52798;SDS011;38667;42.872;74.622;2022-10-22T05:53:00;13.57;;;2.97;;
52798;SDS011;38667;42.872;74.622;2022-10-22T05:55:27;7.80;;;2.97;;
52798;SDS011;38667;42.872;74.622;2022-10-22T05:57:53;10.27;;;2.97;;
52798;SDS011;38667;42.872;74.622;2022-10-22T06:00:21;19.02;;;4.53;;
52798;SDS011;38667;42.872;74.622;2022-10-22T06:02:48;10.13;;;3.15;;
52798;SDS011;38667;42.872;74.622;2022-10-22T06:05:14;7.43;;;2.35;;
52798;SDS011;38667;42.872;74.622;2022-10-22T06:07:41;8.40;;;2.47;;
52798;SDS011;38667;42.872;74.622;2022-10-22T06:10:08;4.85;;;2.33;;
52798;SDS011;38667;42.872;74.622;2022-10-22T06:12:38;6.13;;;2.20;;
52798;SDS011;38667;42.872;74.622;2022-10-22T06:15:05;8.32;;;2.33;;
52798;SDS011;38667;42.872;74.622;2022-10-22T06:17:33;8.13;;;3.35;;
52798;SDS011;38667;42.872;74.622;2022-10-22T06:20:00;7.85;;;2.70;;
52798;SDS011;38667;42.872;74.622;2022-10-22T06:22:26;10.32;;;3.05;;
52798;SDS011;38667;42.872;74.622;2022-10-22T06:24:52;7.90;;;2.30;;
52798;SDS011;38667;42.872;74.622;2022-10-22T06:27:18;7.93;;;2.45;;
52798;SDS011;38667;42.872;74.622;2022-10-22T06:29:45;5.30;;;1.60;;
52798;SDS011;38667;42.872;74.622;2022-10-22T06:32:12;7.72;;;1.60;;
52798;SDS011;38667;42.872;74.622;2022-10-22T06:34:39;3.50;;;1.60;;
52798;SDS011;38667;42.872;74.622;2022-10-22T06:37:06;6.13;;;1.90;;
52798;SDS011;38667;42.872;74.622;2022-10-22T06:39:33;12.55;;;2.28;;
52798;SDS011;38667;42.872;74.622;2022-10-22T06:41:59;6.78;;;2.78;;
52798;SDS011;38667;42.872;74.622;2022-10-22T06:44:26;12.80;;;3.08;;
52798;SDS011;38667;42.872;74.622;2022-10-22T06:46:52;10.38;;;3.33;;
52798;SDS011;38667;42.872;74.622;2022-10-22T06:49:19;10.63;;;3.63;;
52798;SDS011;38667;42.872;74.622;2022-10-22T06:51:50;14.93;;;3.28;;
52798;SDS011;38667;42.872;74.622;2022-10-22T06:54:16;3.58;;;1.85;;
52798;SDS011;38667;42.872;74.622;2022-10-22T06:56:43;6.70;;;1.65;;
52798;SDS011;38667;42.872;74.622;2022-10-22T06:59:09;9.27;;;2.13;;
52798;SDS011;38667;42.872;74.622;2022-10-22T07:01:36;13.65;;;2.30;;
52798;SDS011;38667;42.872;74.622;2022-10-22T07:04:03;7.60;;;1.65;;
52798;SDS011;38667;42.872;74.622;2022-10-22T07:06:30;9.90;;;2.00;;
52798;SDS011;38667;42.872;74.622;2022-10-22T07:08:58;9.27;;;1.95;;
52798;SDS011;38667;42.872;74.622;2022-10-22T07:11:25;4.30;;;2.45;;
52798;SDS011;38667;42.872;74.622;2022-10-22T07:13:53;3.30;;;1.33;;
52798;SDS011;38667;42.872;74.622;2022-10-22T07:16:19;7.70;;;2.00;;
52798;SDS011;38667;42.872;74.622;2022-10-22T07:18:46;7.95;;;2.47;;
52798;SDS011;38667;42.872;74.622;2022-10-22T07:21:13;14.18;;;4.20;;
52798;SDS011;38667;42.872;74.622;2022-10-22T07:23:41;8.32;;;2.95;;
52798;SDS011;38667;42.872;74.622;2022-10-22T07:26:10;6.88;;;3.08;;
52798;SDS011;38667;42.872;74.622;2022-10-22T07:28:37;6.35;;;2.25;;
52798;SDS011;38667;42.872;74.622;2022-10-22T07:31:04;9.10;;;4.13;;
52798;SDS011;38667;42.872;74.622;2022-10-22T07:33:32;7.28;;;2.00;;
52798;SDS011;38667;42.872;74.622;2022-10-22T07:35:59;7.57;;;3.35;;
52798;SDS011;38667;42.872;74.622;2022-10-22T07:38:26;10.40;;;2.50;;
52798;SDS011;38667;42.872;74.622;2022-10-22T07:40:53;17.13;;;3.33;;
52798;SDS011;38667;42.872;74.622;2022-10-22T07:43:21;7.68;;;2.40;;
52798;SDS011;38667;42.872;74.622;2022-10-22T07:45:48;11.43;;;2.13;;
52798;SDS011;38667;42.872;74.622;2022-10-22T07:48:14;3.50;;;1.35;;
52798;SDS011;38667;42.872;74.622;2022-10-22T07:50:41;8.60;;;1.90;;
52798;SDS011;38667;42.872;74.622;2022-10-22T07:53:07;8.45;;;1.20;;
52798;SDS011;38667;42.872;74.622;2022-10-22T07:55:34;9.27;;;1.83;;
52798;SDS011;38667;42.872;74.622;2022-10-22T07:58:00;6.72;;;1.35;;
52798;SDS011;38667;42.872;74.622;2022-10-22T08:00:28;6.18;;;1.38;;
52798;SDS011;38667;42.872;74.622;2022-10-22T08:02:54;4.72;;;1.55;;
52798;SDS011;38667;42.872;74.622;2022-10-22T08:05:21;8.95;;;1.70;;
52798;SDS011;38667;42.872;74.622;2022-10-22T08:07:47;6.82;;;1.40;;
52798;SDS011;38667;42.872;74.622;2022-10-22T08:10:13;14.07;;;1.80;;
52798;SDS011;38667;42.872;74.622;2022-10-22T08:12:40;18.42;;;2.47;;
52798;SDS011;38667;42.872;74.622;2022-10-22T08:15:06;14.60;;;4.55;;
52798;SDS011;38667;42.872;74.622;2022-10-22T08:17:35;15.10;;;3.10;;
52798;SDS011;38667;42.872;74.622;2022-10-22T08:20:01;4.45;;;1.50;;
52798;SDS011;38667;42.872;74.622;2022-10-22T08:22:28;10.23;;;3.00;;
52798;SDS011;38667;42.872;74.622;2022-10-22T08:24:54;5.07;;;2.60;;
52798;SDS011;38667;42.872;74.622;2022-10-22T08:27:21;6.90;;;2.50;;
52798;SDS011;38667;42.872;74.622;2022-10-22T08:29:47;8.98;;;2.67;;
52798;SDS011;38667;42.872;74.622;2022-10-22T08:32:13;5.40;;;2.53;;
52798;SDS011;38667;42.872;74.622;2022-10-22T08:34:41;9.68;;;2.53;;
52798;SDS011;38667;42.872;74.622;2022-10-22T08:37:08;6.68;;;3.03;;
52798;SDS011;38667;42.872;74.622;2022-10-22T08:39:34;4.45;;;2.53;;
52798;SDS011;38667;42.872;74.622;2022-10-22T08:42:03;7.78;;;1.80;;
52798;SDS011;38667;42.872;74.622;2022-10-22T08:44:45;4.50;;;2.25;;
52798;SDS011;38667;42.872;74.622;2022-10-22T08:47:26;5.25;;;2.00;;
52798;SDS011;38667;42.872;74.622;2022-10-22T08:50:04;5.88;;;2.35;;
52798;SDS011;38667;42.872;74.622;2022-10-22T08:52:34;6.13;;;2.70;;
52798;SDS011;38667;42.872;74.622;2022-10-22T08:55:07;6.03;;;2.30;;
52798;SDS011;38667;42.872;74.622;2022-10-22T08:57:45;6.00;;;2.30;;
52798;SDS011;38667;42.872;74.622;2022-10-22T09:00:17;6.97;;;2.72;;
52798;SDS011;38667;42.872;74.622;2022-10-22T09:02:49;8.68;;;2.83;;
52798;SDS011;38667;42.872;74.622;2022-10-22T09:05:30;5.28;;;2.00;;
52798;SDS011;38667;42.872;74.622;2022-10-22T09:08:02;6.53;;;2.50;;
52798;SDS011;38667;42.872;74.622;2022-10-22T09:10:31;6.68;;;2.45;;
52798;SDS011;38667;42.872;74.622;2022-10-22T09:13:00;7.25;;;2.35;;
52798;SDS011;38667;42.872;74.622;2022-10-22T09:15:27;3.47;;;2.13;;
52798;SDS011;38667;42.872;74.622;2022-10-22T09:17:57;7.80;;;2.83;;
52798;SDS011;38667;42.872;74.622;2022-10-22T09:20:33;11.95;;;2.70;;
52798;SDS011;38667;42.872;74.622;2022-10-22T09:23:14;5.13;;;1.80;;
52798;SDS011;38667;42.872;74.622;2022-10-22T09:25:51;6.38;;;1.80;;
52798;SDS011;38667;42.872;74.622;2022-10-22T09:28:18;5.93;;;2.45;;
52798;SDS011;38667;42.872;74.622;2022-10-22T09:30:44;17.95;;;4.22;;
52798;SDS011;38667;42.872;74.622;2022-10-22T09:33:13;7.20;;;3.30;;
52798;SDS011;38667;42.872;74.622;2022-10-22T09:35:46;6.90;;;3.53;;
52798;SDS011;38667;42.872;74.622;2022-10-22T09:38:15;9.35;;;3.08;;
52798;SDS011;38667;42.872;74.622;2022-10-22T09:40:46;8.27;;;3.53;;
52798;SDS011;38667;42.872;74.622;2022-10-22T09:43:15;8.95;;;3.92;;
52798;SDS011;38667;42.872;74.622;2022-10-22T09:45:41;4.45;;;2.95;;
52798;SDS011;38667;42.872;74.622;2022-10-22T09:48:10;8.85;;;2.92;;
52798;SDS011;38667;42.872;74.622;2022-10-22T09:50:43;7.03;;;3.80;;
52798;SDS011;38667;42.872;74.622;2022-10-22T09:53:12;14.90;;;4.32;;
52798;SDS011;38667;42.872;74.622;2022-10-22T09:55:44;24.73;;;5.68;;
52798;SDS011;38667;42.872;74.622;2022-10-22T09:58:16;22.35;;;5.03;;
52798;SDS011;38667;42.872;74.622;2022-10-22T10:00:43;16.30;;;4.05;;
52798;SDS011;38667;42.872;74.622;2022-10-22T10:03:14;22.80;;;4.50;;
52798;SDS011;38667;42.872;74.622;2022-10-22T10:05:43;8.02;;;3.50;;
52798;SDS011;38667;42.872;74.622;2022-10-22T10:08:14;18.13;;;3.40;;
52798;SDS011;38667;42.872;74.622;2022-10-22T10:10:44;5.90;;;3.40;;
52798;SDS011;38667;42.872;74.622;2022-10-22T10:13:29;6.13;;;3.42;;
52798;SDS011;38667;42.872;74.622;2022-10-22T10:16:08;7.85;;;3.03;;
52798;SDS011;38667;42.872;74.622;2022-10-22T10:18:49;7.05;;;2.88;;
52798;SDS011;38667;42.872;74.622;2022-10-22T10:21:32;8.57;;;3.10;;
52798;SDS011;38667;42.872;74.622;2022-10-22T10:24:07;9.77;;;2.70;;
52798;SDS011;38667;42.872;74.622;2022-10-22T10:26:38;9.02;;;2.78;;
52798;SDS011;38667;42.872;74.622;2022-10-22T10:29:11;9.60;;;3.10;;
52798;SDS011;38667;42.872;74.622;2022-10-22T10:31:51;12.88;;;3.50;;
52798;SDS011;38667;42.872;74.622;2022-10-22T10:34:34;12.13;;;3.63;;
52798;SDS011;38667;42.872;74.622;2022-10-22T10:37:11;14.15;;;4.25;;
52798;SDS011;38667;42.872;74.622;2022-10-22T10:39:51;9.02;;;2.47;;
52798;SDS011;38667;42.872;74.622;2022-10-22T10:42:29;23.75;;;5.05;;
52798;SDS011;38667;42.872;74.622;2022-10-22T10:45:02;18.80;;;3.85;;
52798;SDS011;38667;42.872;74.622;2022-10-22T10:50:28;8.25;;;4.03;;
52798;SDS011;38667;42.872;74.622;2022-10-22T10:53:02;15.57;;;4.47;;
52798;SDS011;38667;42.872;74.622;2022-10-22T10:55:36;26.27;;;6.65;;
52798;SDS011;38667;42.872;74.622;2022-10-22T10:58:09;14.90;;;5.70;;
52798;SDS011;38667;42.872;74.622;2022-10-22T11:00:44;10.40;;;4.53;;
52798;SDS011;38667;42.872;74.622;2022-10-22T11:03:33;10.75;;;5.32;;
52798;SDS011;38667;42.872;74.622;2022-10-22T11:06:14;17.73;;;6.00;;
52798;SDS011;38667;42.872;74.622;2022-10-22T11:08:46;14.23;;;5.32;;
52798;SDS011;38667;42.872;74.622;2022-10-22T11:11:17;32.58;;;6.03;;
52798;SDS011;38667;42.872;74.622;2022-10-22T11:13:48;22.75;;;6.32;;
52798;SDS011;38667;42.872;74.622;2022-10-22T11:16:18;20.25;;;5.70;;
52798;SDS011;38667;42.872;74.622;2022-10-22T11:18:50;27.95;;;5.70;;
52798;SDS011;38667;42.872;74.622;2022-10-22T11:21:23;17.85;;;5.40;;
52798;SDS011;38667;42.872;74.622;2022-10-22T11:23:54;21.48;;;7.30;;
52798;SDS011;38667;42.872;74.622;2022-10-22T11:26:33;19.98;;;8.60;;
52798;SDS011;38667;42.872;74.622;2022-10-22T11:29:06;18.85;;;10.23;;
52798;SDS011;38667;42.872;74.622;2022-10-22T11:31:36;26.27;;;10.63;;
52798;SDS011;38667;42.872;74.622;2022-10-22T11:34:04;25.35;;;10.60;;
52798;SDS011;38667;42.872;74.622;2022-10-22T11:36:38;23.30;;;11.45;;
52798;SDS011;38667;42.872;74.622;2022-10-22T11:39:14;27.85;;;11.02;;
52798;SDS011;38667;42.872;74.622;2022-10-22T11:41:54;31.65;;;11.20;;
52798;SDS011;38667;42.872;74.622;2022-10-22T11:44:23;31.50;;;11.20;;
52798;SDS011;38667;42.872;74.622;2022-10-22T11:46:53;26.23;;;11.88;;
52798;SDS011;38667;42.872;74.622;2022-10-22T11:49:22;25.88;;;12.57;;
52798;SDS011;38667;42.872;74.622;2022-10-22T11:51:51;26.67;;;12.48;;
52798;SDS011;38667;42.872;74.622;2022-10-22T11:54:47;34.45;;;15.27;;
52798;SDS011;38667;42.872;74.622;2022-10-22T11:57:20;37.20;;;16.45;;
52798;SDS011;38667;42.872;74.622;2022-10-22T11:59:51;36.38;;;15.82;;
52798;SDS011;38667;42.872;74.622;2022-10-22T12:02:30;34.92;;;15.52;;
52798;SDS011;38667;42.872;74.622;2022-10-22T12:05:31;33.60;;;15.50;;
52798;SDS011;38667;42.872;74.622;2022-10-22T12:08:00;42.90;;;16.48;;
52798;SDS011;38667;42.872;74.622;2022-10-22T12:10:35;45.05;;;16.67;;
52798;SDS011;38667;42.872;74.622;2022-10-22T12:13:17;41.72;;;16.70;;
52798;SDS011;38667;42.872;74.622;2022-10-22T12:15:48;44.92;;;18.52;;
52798;SDS011;38667;42.872;74.622;2022-10-22T12:18:17;39.80;;;16.58;;
52798;SDS011;38667;42.872;74.622;2022-10-22T12:20:48;48.33;;;17.17;;
52798;SDS011;38667;42.872;74.622;2022-10-22T12:23:15;41.50;;;16.55;;
52798;SDS011;38667;42.872;74.622;2022-10-22T12:25:43;40.20;;;16.35;;
52798;SDS011;38667;42.872;74.622;2022-10-22T12:28:10;40.92;;;16.73;;
52798;SDS011;38667;42.872;74.622;2022-10-22T12:30:37;50.90;;;19.25;;
52798;SDS011;38667;42.872;74.622;2022-10-22T12:33:04;48.70;;;20.50;;
52798;SDS011;38667;42.872;74.622;2022-10-22T12:35:32;59.97;;;21.13;;
52798;SDS011;38667;42.872;74.622;2022-10-22T12:38:07;53.78;;;19.77;;
52798;SDS011;38667;42.872;74.622;2022-10-22T12:40:39;46.80;;;20.05;;
52798;SDS011;38667;42.872;74.622;2022-10-22T12:43:09;61.50;;;22.15;;
52798;SDS011;38667;42.872;74.622;2022-10-22T12:45:37;61.17;;;22.00;;
52798;SDS011;38667;42.872;74.622;2022-10-22T12:48:05;51.95;;;19.02;;
52798;SDS011;38667;42.872;74.622;2022-10-22T12:50:39;47.40;;;18.48;;
52798;SDS011;38667;42.872;74.622;2022-10-22T12:53:10;50.53;;;20.05;;
52798;SDS011;38667;42.872;74.622;2022-10-22T12:55:39;54.00;;;22.33;;
52798;SDS011;38667;42.872;74.622;2022-10-22T12:58:05;56.75;;;23.35;;
52798;SDS011;38667;42.872;74.622;2022-10-22T13:00:37;55.50;;;23.23;;
52798;SDS011;38667;42.872;74.622;2022-10-22T13:03:04;61.65;;;21.60;;
52798;SDS011;38667;42.872;74.622;2022-10-22T13:05:31;51.00;;;22.90;;
52798;SDS011;38667;42.872;74.622;2022-10-22T13:08:00;52.92;;;23.73;;
52798;SDS011;38667;42.872;74.622;2022-10-22T13:10:30;61.45;;;23.58;;
52798;SDS011;38667;42.872;74.622;2022-10-22T13:12:58;48.65;;;20.95;;
52798;SDS011;38667;42.872;74.622;2022-10-22T13:15:36;48.47;;;21.67;;
52798;SDS011;38667;42.872;74.622;2022-10-22T13:18:04;53.92;;;22.67;;
52798;SDS011;38667;42.872;74.622;2022-10-22T13:20:48;51.33;;;20.23;;
52798;SDS011;38667;42.872;74.622;2022-10-22T13:23:17;49.63;;;20.85;;
52798;SDS011;38667;42.872;74.622;2022-10-22T13:25:54;55.38;;;21.08;;
52798;SDS011;38667;42.872;74.622;2022-10-22T13:28:25;49.05;;;19.50;;
52798;SDS011;38667;42.872;74.622;2022-10-22T13:30:54;37.55;;;18.55;;
52798;SDS011;38667;42.872;74.622;2022-10-22T13:33:22;50.55;;;19.30;;
52798;SDS011;38667;42.872;74.622;2022-10-22T13:35:51;39.38;;;17.85;;
52798;SDS011;38667;42.872;74.622;2022-10-22T13:38:18;45.63;;;19.50;;
52798;SDS011;38667;42.872;74.622;2022-10-22T13:40:46;51.75;;;21.95;;
52798;SDS011;38667;42.872;74.622;2022-10-22T13:43:13;46.63;;;20.77;;
52798;SDS011;38667;42.872;74.622;2022-10-22T13:45:40;57.28;;;21.65;;
52798;SDS011;38667;42.872;74.622;2022-10-22T13:48:08;50.42;;;22.35;;
52798;SDS011;38667;42.872;74.622;2022-10-22T13:50:39;48.58;;;21.27;;
52798;SDS011;38667;42.872;74.622;2022-10-22T13:53:05;48.83;;;23.08;;
52798;SDS011;38667;42.872;74.622;2022-10-22T13:55:39;49.70;;;23.52;;
52798;SDS011;38667;42.872;74.622;2022-10-22T13:58:08;50.20;;;22.55;;
52798;SDS011;38667;42.872;74.622;2022-10-22T14:00:36;47.20;;;22.58;;
52798;SDS011;38667;42.872;74.622;2022-10-22T14:03:03;45.88;;;23.30;;
52798;SDS011;38667;42.872;74.622;2022-10-22T14:05:32;44.40;;;21.63;;
52798;SDS011;38667;42.872;74.622;2022-10-22T14:07:58;47.60;;;22.08;;
52798;SDS011;38667;42.872;74.622;2022-10-22T14:10:25;40.15;;;21.33;;
52798;SDS011;38667;42.872;74.622;2022-10-22T14:12:51;59.28;;;22.02;;
52798;SDS011;38667;42.872;74.622;2022-10-22T14:15:18;40.35;;;20.20;;
52798;SDS011;38667;42.872;74.622;2022-10-22T14:17:46;43.22;;;21.95;;
52798;SDS011;38667;42.872;74.622;2022-10-22T14:20:15;38.80;;;21.88;;
52798;SDS011;38667;42.872;74.622;2022-10-22T14:22:46;49.17;;;24.48;;
52798;SDS011;38667;42.872;74.622;2022-10-22T14:25:14;59.63;;;33.13;;
52798;SDS011;38667;42.872;74.622;2022-10-22T14:27:42;68.47;;;36.90;;
52798;SDS011;38667;42.872;74.622;2022-10-22T14:30:09;71.13;;;36.58;;
52798;SDS011;38667;42.872;74.622;2022-10-22T14:32:38;72.47;;;39.08;;
52798;SDS011;38667;42.872;74.622;2022-10-22T14:35:05;90.57;;;45.03;;
52798;SDS011;38667;42.872;74.622;2022-10-22T14:37:31;141.05;;;77.53;;